ADDS METAR Data INFO
IDs: Format: Raw Decoded Include TAF

Data at: 0925 UTC 17 Oct 2017

KTOI 170853Z AUTO 05005KT 10SM CLR 12/09 A3017 RMK AO2 SLP213 T01170094 53001
KTOI 170753Z AUTO 04005KT 10SM FEW027 12/09 A3016 RMK AO2 SLP211 T01220094
KTOI 170653Z AUTO 03007KT 10SM BKN033 13/09 A3016 RMK AO2 SLP211 T01280089
KTOI 170553Z AUTO 03006KT 10SM CLR 13/09 A3017 RMK AO2 SLP213 T01280089 10161 20128 402220128 55002
KTOI 170453Z AUTO 02007KT 10SM CLR 13/09 A3016 RMK AO2 SLP211 T01330089
KTOI 170353Z AUTO 02011KT 10SM CLR 14/09 A3017 RMK AO2 SLP214 T01440089
KTOI 170253Z AUTO 03006KT 10SM CLR 14/11 A3017 RMK AO2 SLP215 T01440106 51019
KTOI 170153Z AUTO 36004KT 10SM CLR 14/11 A3016 RMK AO2 SLP209 T01440111
KTOI 170053Z AUTO 01004KT 10SM CLR 15/12 A3014 RMK AO2 SLP203 T01500117
KTOI 162353Z AUTO 35004KT 10SM CLR 16/12 A3012 RMK AO2 SLP195 T01610117 10222 20161 53014
KTOI 162253Z AUTO 36005KT 10SM CLR 19/12 A3009 RMK AO2 SLP186 T01890122
KTOI 162153Z AUTO 35010KT 10SM CLR 21/11 A3008 RMK AO2 SLP182 T02060106
KTOI 162053Z AUTO 34010KT 10SM CLR 22/13 A3008 RMK AO2 SLP180 T02170133 56015
KTOI 161953Z AUTO 01012KT 10SM CLR 21/13 A3008 RMK AO2 SLP181 T02110133
KTOI 161910Z AUTO 35011KT 10SM SCT017 20/14 A3009 RMK AO2 T02000144
KTOI 161853Z AUTO 35009KT 10SM BKN017 19/15 A3010 RMK AO2 SLP187 T01940150
KTOI 161826Z AUTO 36009KT 10SM SCT008 BKN015 OVC019 18/16 A3010 RMK AO2 T01830156
KTOI 161800Z AUTO 33010KT 10SM OVC009 17/16 A3012 RMK AO2 CIG 006V012 T01720156
KTOI 161753Z AUTO 35009KT 10SM OVC007 17/16 A3012 RMK AO2 CIG 006V012 SLP195 60003 T01720161 10206 20167 58007
KTOI 161653Z AUTO 32009KT 10SM OVC006 17/16 A3014 RMK AO2 SLP203 T01720161
KTOI 161553Z AUTO 34010KT 10SM OVC006 17/17 A3014 RMK AO2 SLP202 T01720167
KTOI 161527Z AUTO 34008KT 10SM OVC006 17/17 A3014 RMK AO2 CIG 005V010 T01720172
KTOI 161512Z AUTO 34011KT 10SM OVC007 18/18 A3013 RMK AO2 CIG 005V010 T01780178
KTOI 161453Z AUTO 34010KT 10SM OVC008 18/18 A3012 RMK AO2 RAE01B06E52 CIG 006V011 SLP197 P0003 60003 T01830178 53016
KTOI 161404Z AUTO 35007KT 10SM BKN007 OVC100 19/19 A3011 RMK AO2 RAE01 P0000 T01940189
KTOI 161353Z AUTO 34010KT 10SM -RA BKN009 BKN060 OVC110 19/19 A3010 RMK AO2 RAB31 SLP189 P0000 T01940189
KTOI 161350Z AUTO 35010KT 10SM -RA BKN009 BKN060 OVC100 19/19 A3010 RMK AO2 RAB31 P0000
KTOI 161347Z AUTO 35009KT 10SM -RA SCT011 BKN060 OVC100 19/19 A3010 RMK AO2 RAB31 P0000
KTOI 161304Z AUTO 33012KT 10SM OVC008 21/19 A3010 RMK AO2 T02060194
KTOI 161253Z AUTO 32009KT 10SM OVC010 21/19 A3010 RMK AO2 CIG 008V012 SLP188 T02060194
KTOI 161246Z AUTO 33006KT 10SM OVC010 21/19 A3009 RMK AO2 CIG 008V012 T02060194
KTOI 161224Z AUTO 32007KT 10SM OVC009 21/20 A3008 RMK AO2 CIG 006V011 T02060200
KTOI 161211Z AUTO 35005KT 10SM OVC006 21/20 A3008 RMK AO2 CIG 005V009 T02060200
KTOI 161153Z AUTO 32012KT 10SM OVC005 21/20 A3008 RMK AO2 SLP181 T02060200 10222 20206 53015
KTOI 161136Z AUTO 33009KT 10SM OVC006 21/21 A3007 RMK AO2 T02110211
KTOI 161111Z AUTO 34010KT 10SM OVC007 22/21 A3006 RMK AO2 T02170211
KTOI 161053Z AUTO 33008KT 310V010 10SM OVC008 22/22 A3005 RMK AO2 CIG 006V012 SLP171 T02220217
KTOI 161044Z AUTO 33007KT 10SM OVC009 22/22 A3005 RMK AO2 CIG 006V011 T02220217
KTOI 161024Z AUTO 33005KT 10SM OVC007 22/22 A3004 RMK AO2 T02220217
KTOI 161005Z AUTO 32004KT 10SM OVC006 22/22 A3004 RMK AO2 T02220217
KTOI 160953Z AUTO 33004KT 10SM OVC005 22/22 A3003 RMK AO2 SLP165 T02220222
KTOI 160908Z AUTO 32007KT 10SM OVC005 22/22 A3003 RMK AO2 T02220222
KTOI 160853Z AUTO 31006KT 10SM OVC006 22/22 A3003 RMK AO2 CIG 005V009 SLP165 T02220217 56009
KTOI 160838Z AUTO 30006KT 10SM BKN006 BKN055 22/22 A3003 RMK AO2 T02170217
KTOI 160831Z AUTO 31004KT 7SM SCT008 BKN055 BKN110 21/21 A3003 RMK AO2 T02110211
KTOI 160753Z AUTO 00000KT 7SM FEW065 SCT090 BKN110 21/21 A3004 RMK AO2 SLP166 T02110211
KTOI 160653Z AUTO 00000KT 10SM SCT065 BKN080 OVC095 22/22 A3005 RMK AO2 SLP170 T02170217
KTOI 160553Z AUTO 00000KT 5SM BR FEW100 21/21 A3006 RMK AO2 SLP175 T02110211 10239 20211 403060206 58001
KTOI 160551Z AUTO 00000KT 5SM BR FEW100 21/21 A3006 RMK AO2
KTOI 160543Z AUTO 00000KT 2 1/2SM BR CLR 21/21 A3007 RMK AO2 T02110211
KTOI 160453Z AUTO 00000KT 10SM CLR 22/22 A3007 RMK AO2 SLP177 T02170217
KTOI 160353Z AUTO 00000KT 10SM FEW110 22/22 A3007 RMK AO2 SLP176 T02220222
KTOI 160253Z AUTO 00000KT 10SM FEW120 23/23 A3005 RMK AO2 SLP172 T02280228 58001
KTOI 160053Z AUTO 00000KT 10SM OVC110 23/23 A3007 RMK AO2 SLP176 T02330228 TSNO
KTOI 152353Z AUTO 00000KT 10SM CLR 24/23 A3006 RMK AO2 SLP173 T02390228 10306 20239 53003 TSNO
KTOI 152253Z AUTO 03004KT 10SM BKN070 OVC095 25/23 A3004 RMK AO2 SLP169 T02500228 TSNO
KTOI 152153Z AUTO 34007KT 10SM BKN075 OVC090 26/22 A3005 RMK AO2 SLP170 T02560222 TSNO